Prinsburg, MN (56281)

11:26 PM CDT on August 30, 2016 (GMT -0500)
Willmar | | Change Station

Elev 1125 ft 45.12 °N, 95.13 °W | Updated 11 minutes ago

Clear
Clear
63 °F
Feels Like 63 °F
N
0
Wind Variable Wind from North

Today
High -- | Low -- °F
--% Chance of Precip.
Yesterday
High -- | Low -- °F
Precip. -- in
Pressure 30.21 in
Visibility 10.0 miles
Clouds Clear
Dew Point 61 °F
Humidity 94%
Rainfall 0.00 in
Snow Depth Not available.
6:41 AM 8:00 PM
Waning Crescent, 2% visible
METAR KBDH 310415Z AUTO 00000KT 10SM CLR 17/16 A3021 RMK AO2
Pressure 30.21 in
Visibility 10.0 miles
Clouds Clear
Dew Point 61 °F
Humidity 94%
Rainfall 0.00 in
Snow Depth Not available.
6:41 AM 8:00 PM
Waning Crescent, 2% visible
METAR KBDH 310415Z AUTO 00000KT 10SM CLR 17/16 A3021 RMK AO2

10-Day Weather Forecast

Almanac

Astronomy

Aug. 30, 2016 Rise Set
Actual Time
Civil Twilight
Nautical Twilight
Astronomical Twilight
Moon
Length of Visible Light
Length of Day
Tomorrow will be .
, % of the Moon is Illuminated

Today's Extremes

State Highs State Lows

Community

WunderPhotos

Upload Photos

1,936,035 photos uploaded!

WunderBlog® & News

Nearby

Air Quality

  Air Quality AQ Index Pollutant
Not available.

Snow Depth

Station Depth Elevation

Earthquake Activity

City Distance Mag. Time & Date
Minimum magnitude displayed is 2.5.

Coastal Water Temperatures

Place Temperature

Stations

Nearby Weather Stations

Station Location Temp. Windchill Dew Point Humidity Wind Precip. Elev Updated Type
                   

Watches & Warnings

There are currently no watches in effect.